Longreach, Queensland

3:44 AM AEST on February 01, 2015 (GMT +1000)
Queensland | Change Station
CLOSE
Current Station
Personal Weather Station
Location: Longreach, QLD
Elevation: 617 ft
Nearby Weather Stations

Elev 617 ft 23.45 °S, 144.25 °E | Updated 4 seconds ago

Clear
Clear
74.6 °F
Feels Like 76 °F
N
0.0
Wind Variable Wind from SE
Gusts 1.1 mph

Today
High -- | Low -- °F
--% Chance of Precip.
Yesterday
High -- | Low -- °F
Precip. -- in
6:01 AM 7:11 PM
Waxing Gibbous, 90% visible
Pressure 29.68 in
Visibility 6.2 miles
Clouds
Heat Index 76 °F
Dew Point 35 °F
Humidity 24%
Rainfall 0.00 in
Snow Depth Not available.
UV Not available.
Pollen Not available.
Air Quality Not available.
Flu Activity Not available.
METAR YLRE 311700Z AUTO 17008KT 9999 // NCD 25/M04 Q1005

More Conditions Fewer Conditions

Pressure 29.68 in
Visibility 6.2 miles
Clouds
Heat Index 76 °F
Dew Point 35 °F
Humidity 24%
Rainfall 0.00 in
Snow Depth Not available.
UV Not available.
Pollen Not available.
Air Quality Not available.
Flu Activity Not available.
METAR YLRE 311700Z AUTO 17008KT 9999 // NCD 25/M04 Q1005

More Conditions Fewer Conditions

10-Day Weather Forecast

Almanac

Astronomy

Feb. 01, 2015 Rise Set
Actual Time
Civil Twilight
Nautical Twilight
Astronomical Twilight
Moon
Length of Visible Light
Length of Day
Tomorrow will be .
, % of the Moon is Illuminated

Today's Extremes

Country Highs Country Lows

Community

WunderPhotos

Upload Photos

1,792,136 photos uploaded!

WunderBlogs® & News

Nearby

Air Quality

  Air Quality AQ Index Pollutant
Not available.

Snow Depth

Station Depth Elevation

Earthquake Activity

City Distance Mag. Time & Date
Minimum magnitude displayed is 2.5.

Coastal Water Temperatures

Place Temperature

Nearby Weather Stations